< Typhoon 196623 1966 Season Typhoon 196625 >
Typhoon 196624 (HELEN)
General InformationTrack Information on Google Maps || Disaster Info.ResourceGoogle EarthGE AnimationAtom FeedGeoJSON
Detalied Best Track (Time Zone = UTC)
Year Month Day Hour Lat. Long. Pressure (hPa) Wind (kt) Class Image Chart
1966 9 16 00 14.8 141.5 1006 0 2 -- Chart
1966 9 16 06 14.5 141.0 1002 0 2 -- Chart
1966 9 16 12 14.3 140.5 1002 0 2 -- Chart
1966 9 16 18 14.2 140.0 1000 0 9 -- Chart
1966 9 17 00 14.2 139.3 1000 0 9 -- Chart
1966 9 17 06 14.4 138.3 1000 0 9 -- Chart
1966 9 17 12 14.9 137.5 998 0 9 -- Chart
1966 9 17 18 15.4 136.8 998 0 9 -- Chart
1966 9 18 00 16.1 135.7 998 0 9 -- Chart
1966 9 18 06 16.7 134.7 998 0 9 -- Chart
1966 9 18 12 17.5 133.8 998 0 9 -- Chart
1966 9 18 18 18.3 133.1 996 0 9 -- Chart
1966 9 19 00 19.2 132.5 996 0 9 -- Chart
1966 9 19 06 20.0 131.5 996 0 9 -- Chart
1966 9 19 12 19.4 130.2 994 0 9 -- Chart
1966 9 19 18 19.4 129.5 996 0 9 -- Chart
1966 9 20 00 19.5 129.0 996 0 9 -- Chart
1966 9 20 06 19.5 128.5 994 0 9 -- Chart
1966 9 20 12 19.5 128.0 994 0 9 -- Chart
1966 9 20 18 19.6 127.5 994 0 9 -- Chart
1966 9 21 00 19.7 126.5 994 0 9 -- Chart
1966 9 21 06 19.9 126.3 992 0 9 -- Chart
1966 9 21 12 20.7 126.2 992 0 9 -- Chart
1966 9 21 18 21.5 126.4 990 0 9 -- Chart
1966 9 22 00 22.1 127.0 990 0 9 -- Chart
1966 9 22 06 22.7 127.1 988 0 9 -- Chart
1966 9 22 12 23.6 127.4 985 0 9 -- Chart
1966 9 22 18 24.4 127.7 980 0 9 -- Chart
1966 9 23 00 25.1 128.0 978 0 9 -- Chart
1966 9 23 06 26.0 128.4 978 0 9 -- Chart
1966 9 23 12 27.2 129.0 978 0 9 -- Chart
1966 9 23 18 28.5 129.2 978 0 9 -- Chart
1966 9 24 00 29.8 129.5 984 0 9 -- Chart
1966 9 24 06 30.4 129.6 983 0 9 -- Chart
1966 9 24 12 30.5 130.8 985 0 9 -- Chart
1966 9 24 18 31.2 131.8 984 0 9 -- Chart
1966 9 25 00 32.8 133.2 988 0 9 -- Chart
1966 9 25 06 35.6 135.8 992 0 9 -- Chart
1966 9 25 12 39.0 138.5 996 0 6 -- Chart
1966 9 25 18 40.0 137.8 996 0 6 -- Chart
1966 9 26 00 40.4 136.6 996 0 6 -- Chart
1966 9 26 06 42.0 137.3 994 0 6 -- Chart
1966 9 26 12 43.3 137.8 996 0 6 -- Chart
1966 9 26 18 44.2 138.2 996 0 6 -- Chart
1966 9 27 00 45.2 139.0 996 0 6 -- Chart
1966 9 27 06 45.8 140.4 992 0 6 -- Chart
1966 9 27 12 46.0 142.0 996 0 6 -- Chart
1966 9 27 18 46.3 143.5 992 0 6 -- Chart
1966 9 28 00 46.3 145.0 998 0 6 -- Chart
1966 9 28 06 46.1 146.0 1000 0 6 -- Chart
1966 9 28 12 46.0 147.0 1004 0 6 -- Chart
Japan Meteorological Agency Best Track Data | Correction Date : 1989-06-01
< Typhoon 196623 1966 Season Typhoon 196625 >

Help